Caryville, Florida
Current Conditions -  °F | °C
As of 12:58 AM on Sunday 23 Nov 2014 (Local Time) from K1J0 Reporting Station
Light Rain Light Rain  
Wind Chill: 61°   Ceiling: 600
Heat Index: 61°   Visibility: 7mi
Dew Point: 60°   Wind: 8mph
Humidity: 97%   Direction: 80°E
Pressure: 30"   Gusts: NA
Location:  30.77°N, 85.81°W
Report Text: K1J0 230658Z AUTO 08007KT 7SM -RA OVC006 16/16 A3000 RMK AO2 SLP117 T01610156 PNO $
Loading
Personal Weather Stations






























Interactive Weather Map New forecast layout! Learn more

10-Day Weather Forecast

Advertisements
Track Severe Weather on mobile